sensor_id;sensor_type;location;lat;lon;timestamp;temperature;humidity
52899;DHT22;38763;53.096;6.062;2022-12-13T00:01:41;-3.90;99.90
52899;DHT22;38763;53.096;6.062;2022-12-13T00:04:08;-3.90;99.90
52899;DHT22;38763;53.096;6.062;2022-12-13T00:06:34;-4.10;99.90
52899;DHT22;38763;53.096;6.062;2022-12-13T00:09:02;-4.10;99.90
52899;DHT22;38763;53.096;6.062;2022-12-13T00:11:28;-4.10;99.90
52899;DHT22;38763;53.096;6.062;2022-12-13T00:13:54;-4.00;99.90
52899;DHT22;38763;53.096;6.062;2022-12-13T00:16:22;-4.10;99.90
52899;DHT22;38763;53.096;6.062;2022-12-13T00:18:53;-4.10;99.90
52899;DHT22;38763;53.096;6.062;2022-12-13T00:21:21;-4.10;99.90
52899;DHT22;38763;53.096;6.062;2022-12-13T00:23:48;-4.20;99.90
52899;DHT22;38763;53.096;6.062;2022-12-13T00:26:16;-4.20;99.90
52899;DHT22;38763;53.096;6.062;2022-12-13T00:28:43;-4.20;99.90
52899;DHT22;38763;53.096;6.062;2022-12-13T00:31:09;-4.00;99.90
52899;DHT22;38763;53.096;6.062;2022-12-13T00:33:37;-4.00;99.90
52899;DHT22;38763;53.096;6.062;2022-12-13T00:36:04;-4.00;99.90
52899;DHT22;38763;53.096;6.062;2022-12-13T00:38:30;-4.00;99.90
52899;DHT22;38763;53.096;6.062;2022-12-13T00:40:56;-4.00;99.90
52899;DHT22;38763;53.096;6.062;2022-12-13T00:43:22;-4.00;99.90
52899;DHT22;38763;53.096;6.062;2022-12-13T00:45:47;-4.00;99.90
52899;DHT22;38763;53.096;6.062;2022-12-13T00:48:13;-4.00;99.90
52899;DHT22;38763;53.096;6.062;2022-12-13T00:50:38;-4.00;99.90
52899;DHT22;38763;53.096;6.062;2022-12-13T00:53:05;-4.00;99.90
52899;DHT22;38763;53.096;6.062;2022-12-13T00:55:31;-4.00;99.90
52899;DHT22;38763;53.096;6.062;2022-12-13T00:57:56;-4.10;99.90
52899;DHT22;38763;53.096;6.062;2022-12-13T01:00:22;-4.00;99.90
52899;DHT22;38763;53.096;6.062;2022-12-13T01:02:51;-4.10;99.90
52899;DHT22;38763;53.096;6.062;2022-12-13T01:05:17;-4.10;99.90
52899;DHT22;38763;53.096;6.062;2022-12-13T01:07:43;-4.10;99.90
52899;DHT22;38763;53.096;6.062;2022-12-13T01:10:10;-4.10;99.90
52899;DHT22;38763;53.096;6.062;2022-12-13T01:12:37;-4.20;99.90
52899;DHT22;38763;53.096;6.062;2022-12-13T01:15:03;-4.20;99.90
52899;DHT22;38763;53.096;6.062;2022-12-13T01:17:29;-4.20;99.90
52899;DHT22;38763;53.096;6.062;2022-12-13T01:19:55;-4.30;99.90
52899;DHT22;38763;53.096;6.062;2022-12-13T01:22:21;-4.30;99.90
52899;DHT22;38763;53.096;6.062;2022-12-13T01:24:46;-4.30;99.90
52899;DHT22;38763;53.096;6.062;2022-12-13T01:27:12;-4.30;99.90
52899;DHT22;38763;53.096;6.062;2022-12-13T01:29:38;-4.30;99.90
52899;DHT22;38763;53.096;6.062;2022-12-13T01:32:03;-4.40;99.90
52899;DHT22;38763;53.096;6.062;2022-12-13T01:34:29;-4.40;99.90
52899;DHT22;38763;53.096;6.062;2022-12-13T01:36:56;-4.30;99.90
52899;DHT22;38763;53.096;6.062;2022-12-13T01:39:22;-4.20;99.90
52899;DHT22;38763;53.096;6.062;2022-12-13T01:41:50;-4.20;99.90
52899;DHT22;38763;53.096;6.062;2022-12-13T01:47:23;-4.40;99.90
52899;DHT22;38763;53.096;6.062;2022-12-13T01:49:51;-4.30;99.90
52899;DHT22;38763;53.096;6.062;2022-12-13T01:52:18;-4.30;99.90
52899;DHT22;38763;53.096;6.062;2022-12-13T01:54:47;-4.40;99.90
52899;DHT22;38763;53.096;6.062;2022-12-13T01:57:14;-4.40;99.90
52899;DHT22;38763;53.096;6.062;2022-12-13T01:59:42;-4.30;99.90
52899;DHT22;38763;53.096;6.062;2022-12-13T02:02:10;-4.40;99.90
52899;DHT22;38763;53.096;6.062;2022-12-13T02:07:17;-4.30;99.90
52899;DHT22;38763;53.096;6.062;2022-12-13T02:09:44;-4.30;99.90
52899;DHT22;38763;53.096;6.062;2022-12-13T02:12:10;-4.20;99.90
52899;DHT22;38763;53.096;6.062;2022-12-13T02:14:38;-4.30;99.90
52899;DHT22;38763;53.096;6.062;2022-12-13T02:17:34;-4.30;99.90
52899;DHT22;38763;53.096;6.062;2022-12-13T02:34:27;-4.20;99.90
52899;DHT22;38763;53.096;6.062;2022-12-13T02:37:19;-4.20;99.90
52899;DHT22;38763;53.096;6.062;2022-12-13T02:39:57;-4.20;99.90
52899;DHT22;38763;53.096;6.062;2022-12-13T02:43:19;-4.30;99.90
52899;DHT22;38763;53.096;6.062;2022-12-13T02:45:43;-4.30;99.90
52899;DHT22;38763;53.096;6.062;2022-12-13T02:48:11;-4.40;99.90
52899;DHT22;38763;53.096;6.062;2022-12-13T02:50:38;-4.40;99.90
52899;DHT22;38763;53.096;6.062;2022-12-13T02:53:06;-4.40;99.90
52899;DHT22;38763;53.096;6.062;2022-12-13T02:55:33;-4.50;99.90
52899;DHT22;38763;53.096;6.062;2022-12-13T02:58:02;-4.50;99.90
52899;DHT22;38763;53.096;6.062;2022-12-13T03:09:17;-4.70;99.90
52899;DHT22;38763;53.096;6.062;2022-12-13T03:17:21;-4.50;99.90
52899;DHT22;38763;53.096;6.062;2022-12-13T03:19:50;-4.50;99.90
52899;DHT22;38763;53.096;6.062;2022-12-13T03:22:16;-4.50;99.90
52899;DHT22;38763;53.096;6.062;2022-12-13T03:24:42;-4.40;99.90
52899;DHT22;38763;53.096;6.062;2022-12-13T03:27:07;-4.40;99.90
52899;DHT22;38763;53.096;6.062;2022-12-13T03:29:33;-4.50;99.90
52899;DHT22;38763;53.096;6.062;2022-12-13T03:31:59;-4.50;99.90
52899;DHT22;38763;53.096;6.062;2022-12-13T03:34:24;-4.40;99.90
52899;DHT22;38763;53.096;6.062;2022-12-13T03:36:53;-4.40;99.90
52899;DHT22;38763;53.096;6.062;2022-12-13T03:39:19;-4.40;99.90
52899;DHT22;38763;53.096;6.062;2022-12-13T03:41:45;-4.60;99.90
52899;DHT22;38763;53.096;6.062;2022-12-13T03:44:11;-4.60;99.90
52899;DHT22;38763;53.096;6.062;2022-12-13T03:46:36;-4.70;99.90
52899;DHT22;38763;53.096;6.062;2022-12-13T03:49:02;-4.70;99.90
52899;DHT22;38763;53.096;6.062;2022-12-13T03:51:28;-4.70;99.90
52899;DHT22;38763;53.096;6.062;2022-12-13T03:53:53;-4.80;99.90
52899;DHT22;38763;53.096;6.062;2022-12-13T03:56:19;-4.80;99.90
52899;DHT22;38763;53.096;6.062;2022-12-13T03:58:45;-4.70;99.90
52899;DHT22;38763;53.096;6.062;2022-12-13T04:01:12;-4.70;99.90
52899;DHT22;38763;53.096;6.062;2022-12-13T04:03:40;-4.80;99.90
52899;DHT22;38763;53.096;6.062;2022-12-13T04:06:07;-4.80;99.90
52899;DHT22;38763;53.096;6.062;2022-12-13T04:08:34;-4.70;99.90
52899;DHT22;38763;53.096;6.062;2022-12-13T04:11:00;-4.60;99.90
52899;DHT22;38763;53.096;6.062;2022-12-13T04:13:45;-4.70;99.90
52899;DHT22;38763;53.096;6.062;2022-12-13T04:16:11;-4.70;99.90
52899;DHT22;38763;53.096;6.062;2022-12-13T04:18:37;-4.80;99.90
52899;DHT22;38763;53.096;6.062;2022-12-13T04:21:02;-4.90;99.90
52899;DHT22;38763;53.096;6.062;2022-12-13T04:23:28;-5.00;99.90
52899;DHT22;38763;53.096;6.062;2022-12-13T04:25:54;-4.90;99.90
52899;DHT22;38763;53.096;6.062;2022-12-13T04:28:19;-5.00;99.90
52899;DHT22;38763;53.096;6.062;2022-12-13T04:30:45;-5.00;99.90
52899;DHT22;38763;53.096;6.062;2022-12-13T04:33:10;-5.00;99.90
52899;DHT22;38763;53.096;6.062;2022-12-13T04:35:41;-5.00;99.90
52899;DHT22;38763;53.096;6.062;2022-12-13T04:38:09;-5.00;99.90
52899;DHT22;38763;53.096;6.062;2022-12-13T04:40:34;-5.10;99.90
52899;DHT22;38763;53.096;6.062;2022-12-13T04:43:00;-5.10;99.90
52899;DHT22;38763;53.096;6.062;2022-12-13T04:45:26;-5.00;99.90
52899;DHT22;38763;53.096;6.062;2022-12-13T04:47:51;-4.90;99.90
52899;DHT22;38763;53.096;6.062;2022-12-13T04:50:17;-4.80;99.90
52899;DHT22;38763;53.096;6.062;2022-12-13T04:52:42;-4.90;99.90
52899;DHT22;38763;53.096;6.062;2022-12-13T04:55:09;-4.90;99.90
52899;DHT22;38763;53.096;6.062;2022-12-13T04:57:35;-5.00;99.90
52899;DHT22;38763;53.096;6.062;2022-12-13T05:00:02;-5.10;99.90
52899;DHT22;38763;53.096;6.062;2022-12-13T05:02:28;-5.10;99.90
52899;DHT22;38763;53.096;6.062;2022-12-13T05:04:53;-5.10;99.90
52899;DHT22;38763;53.096;6.062;2022-12-13T05:07:19;-5.10;99.90
52899;DHT22;38763;53.096;6.062;2022-12-13T05:09:45;-5.10;99.90
52899;DHT22;38763;53.096;6.062;2022-12-13T05:12:10;-5.00;99.90
52899;DHT22;38763;53.096;6.062;2022-12-13T05:14:36;-5.10;99.90
52899;DHT22;38763;53.096;6.062;2022-12-13T05:17:01;-5.20;99.90
52899;DHT22;38763;53.096;6.062;2022-12-13T05:19:27;-5.20;99.90
52899;DHT22;38763;53.096;6.062;2022-12-13T05:21:53;-5.10;99.90
52899;DHT22;38763;53.096;6.062;2022-12-13T05:24:18;-5.10;99.90
52899;DHT22;38763;53.096;6.062;2022-12-13T05:26:44;-5.10;99.90
52899;DHT22;38763;53.096;6.062;2022-12-13T05:29:10;-5.10;99.90
52899;DHT22;38763;53.096;6.062;2022-12-13T05:31:36;-5.10;99.90
52899;DHT22;38763;53.096;6.062;2022-12-13T05:34:01;-5.10;99.90
52899;DHT22;38763;53.096;6.062;2022-12-13T05:36:27;-5.20;99.90
52899;DHT22;38763;53.096;6.062;2022-12-13T05:38:53;-5.20;99.90
52899;DHT22;38763;53.096;6.062;2022-12-13T05:41:21;-5.20;99.90
52899;DHT22;38763;53.096;6.062;2022-12-13T05:43:49;-5.20;99.90
52899;DHT22;38763;53.096;6.062;2022-12-13T05:46:15;-5.10;99.90
52899;DHT22;38763;53.096;6.062;2022-12-13T05:48:40;-5.00;99.90
52899;DHT22;38763;53.096;6.062;2022-12-13T05:51:07;-5.00;99.90
52899;DHT22;38763;53.096;6.062;2022-12-13T05:53:32;-5.10;99.90
52899;DHT22;38763;53.096;6.062;2022-12-13T05:55:59;-5.10;99.90
52899;DHT22;38763;53.096;6.062;2022-12-13T05:58:25;-5.10;99.90
52899;DHT22;38763;53.096;6.062;2022-12-13T06:00:50;-5.20;99.90
52899;DHT22;38763;53.096;6.062;2022-12-13T06:03:16;-5.10;99.90
52899;DHT22;38763;53.096;6.062;2022-12-13T06:05:41;-5.00;99.90
52899;DHT22;38763;53.096;6.062;2022-12-13T06:08:08;-5.10;99.90
52899;DHT22;38763;53.096;6.062;2022-12-13T06:10:34;-5.20;99.90
52899;DHT22;38763;53.096;6.062;2022-12-13T06:13:00;-5.20;99.90
52899;DHT22;38763;53.096;6.062;2022-12-13T06:15:25;-5.20;99.90
52899;DHT22;38763;53.096;6.062;2022-12-13T06:17:51;-5.20;99.90
52899;DHT22;38763;53.096;6.062;2022-12-13T06:20:17;-5.20;99.90
52899;DHT22;38763;53.096;6.062;2022-12-13T06:22:43;-5.30;99.90
52899;DHT22;38763;53.096;6.062;2022-12-13T06:25:09;-5.30;99.90
52899;DHT22;38763;53.096;6.062;2022-12-13T06:27:35;-5.30;99.90
52899;DHT22;38763;53.096;6.062;2022-12-13T06:30:00;-5.20;99.90
52899;DHT22;38763;53.096;6.062;2022-12-13T06:32:26;-5.20;99.90
52899;DHT22;38763;53.096;6.062;2022-12-13T06:34:51;-5.10;99.90
52899;DHT22;38763;53.096;6.062;2022-12-13T06:37:17;-5.20;99.90
52899;DHT22;38763;53.096;6.062;2022-12-13T06:39:43;-5.20;99.90
52899;DHT22;38763;53.096;6.062;2022-12-13T06:42:14;-5.10;99.90
52899;DHT22;38763;53.096;6.062;2022-12-13T06:44:41;-5.10;99.90
52899;DHT22;38763;53.096;6.062;2022-12-13T06:47:06;-5.20;99.90
52899;DHT22;38763;53.096;6.062;2022-12-13T06:49:32;-5.20;99.90
52899;DHT22;38763;53.096;6.062;2022-12-13T06:51:58;-5.20;99.90
52899;DHT22;38763;53.096;6.062;2022-12-13T06:54:23;-5.20;99.90
52899;DHT22;38763;53.096;6.062;2022-12-13T06:56:49;-5.20;99.90
52899;DHT22;38763;53.096;6.062;2022-12-13T06:59:15;-5.10;99.90
52899;DHT22;38763;53.096;6.062;2022-12-13T07:01:40;-5.10;99.90
52899;DHT22;38763;53.096;6.062;2022-12-13T07:04:07;-5.00;99.90
52899;DHT22;38763;53.096;6.062;2022-12-13T07:06:33;-5.00;99.90
52899;DHT22;38763;53.096;6.062;2022-12-13T07:08:59;-5.10;99.90
52899;DHT22;38763;53.096;6.062;2022-12-13T07:11:27;-5.10;99.90
52899;DHT22;38763;53.096;6.062;2022-12-13T07:13:53;-5.10;99.90
52899;DHT22;38763;53.096;6.062;2022-12-13T07:16:21;-5.20;99.90
52899;DHT22;38763;53.096;6.062;2022-12-13T07:18:46;-5.10;99.90
52899;DHT22;38763;53.096;6.062;2022-12-13T07:21:13;-5.00;99.90
52899;DHT22;38763;53.096;6.062;2022-12-13T07:23:40;-5.00;99.90
52899;DHT22;38763;53.096;6.062;2022-12-13T07:26:07;-4.90;99.90
52899;DHT22;38763;53.096;6.062;2022-12-13T07:28:34;-5.00;99.90
52899;DHT22;38763;53.096;6.062;2022-12-13T07:31:01;-5.00;99.90
52899;DHT22;38763;53.096;6.062;2022-12-13T07:33:27;-5.10;99.90
52899;DHT22;38763;53.096;6.062;2022-12-13T07:36:10;-5.10;99.90
52899;DHT22;38763;53.096;6.062;2022-12-13T07:38:36;-5.00;99.90
52899;DHT22;38763;53.096;6.062;2022-12-13T07:41:03;-4.90;99.90
52899;DHT22;38763;53.096;6.062;2022-12-13T07:43:30;-5.00;99.90
52899;DHT22;38763;53.096;6.062;2022-12-13T07:46:04;-5.10;99.90
52899;DHT22;38763;53.096;6.062;2022-12-13T07:48:30;-5.10;99.90
52899;DHT22;38763;53.096;6.062;2022-12-13T07:51:01;-5.00;99.90
52899;DHT22;38763;53.096;6.062;2022-12-13T07:53:27;-5.00;99.90
52899;DHT22;38763;53.096;6.062;2022-12-13T07:55:53;-5.00;99.90
52899;DHT22;38763;53.096;6.062;2022-12-13T07:58:19;-5.00;99.90
52899;DHT22;38763;53.096;6.062;2022-12-13T08:00:45;-5.00;99.90
52899;DHT22;38763;53.096;6.062;2022-12-13T08:03:11;-4.90;99.90
52899;DHT22;38763;53.096;6.062;2022-12-13T08:05:37;-4.90;99.90
52899;DHT22;38763;53.096;6.062;2022-12-13T08:08:05;-4.90;99.90
52899;DHT22;38763;53.096;6.062;2022-12-13T08:10:31;-4.80;99.90
52899;DHT22;38763;53.096;6.062;2022-12-13T08:12:57;-4.70;99.90
52899;DHT22;38763;53.096;6.062;2022-12-13T08:15:23;-4.70;99.90
52899;DHT22;38763;53.096;6.062;2022-12-13T08:17:50;-4.70;99.90
52899;DHT22;38763;53.096;6.062;2022-12-13T08:20:16;-4.60;99.90
52899;DHT22;38763;53.096;6.062;2022-12-13T08:22:42;-4.50;99.90
52899;DHT22;38763;53.096;6.062;2022-12-13T08:25:08;-4.50;99.90
52899;DHT22;38763;53.096;6.062;2022-12-13T08:27:34;-4.50;99.90
52899;DHT22;38763;53.096;6.062;2022-12-13T08:29:59;-4.40;99.90
52899;DHT22;38763;53.096;6.062;2022-12-13T08:32:25;-4.40;99.90
52899;DHT22;38763;53.096;6.062;2022-12-13T08:34:51;-4.30;99.90
52899;DHT22;38763;53.096;6.062;2022-12-13T08:37:16;-4.30;99.90
52899;DHT22;38763;53.096;6.062;2022-12-13T08:39:42;-4.30;99.90
52899;DHT22;38763;53.096;6.062;2022-12-13T08:42:13;-4.20;99.90
52899;DHT22;38763;53.096;6.062;2022-12-13T08:44:39;-4.20;99.90
52899;DHT22;38763;53.096;6.062;2022-12-13T08:47:05;-4.10;99.90
52899;DHT22;38763;53.096;6.062;2022-12-13T08:49:31;-4.10;99.90
52899;DHT22;38763;53.096;6.062;2022-12-13T08:51:57;-4.00;99.90
52899;DHT22;38763;53.096;6.062;2022-12-13T08:54:24;-4.00;99.90
52899;DHT22;38763;53.096;6.062;2022-12-13T08:56:49;-4.00;99.90
52899;DHT22;38763;53.096;6.062;2022-12-13T08:59:15;-3.80;99.90
52899;DHT22;38763;53.096;6.062;2022-12-13T09:01:41;-3.80;99.90
52899;DHT22;38763;53.096;6.062;2022-12-13T09:04:06;-3.80;99.90
52899;DHT22;38763;53.096;6.062;2022-12-13T09:06:32;-3.70;99.90
52899;DHT22;38763;53.096;6.062;2022-12-13T09:08:58;-3.60;99.90
52899;DHT22;38763;53.096;6.062;2022-12-13T09:11:24;-3.50;99.90
52899;DHT22;38763;53.096;6.062;2022-12-13T09:13:50;-3.50;99.90
52899;DHT22;38763;53.096;6.062;2022-12-13T09:16:17;-3.40;99.90
52899;DHT22;38763;53.096;6.062;2022-12-13T09:18:44;-3.40;99.90
52899;DHT22;38763;53.096;6.062;2022-12-13T09:21:12;-3.30;99.90
52899;DHT22;38763;53.096;6.062;2022-12-13T09:23:38;-3.20;99.90
52899;DHT22;38763;53.096;6.062;2022-12-13T09:26:06;-3.20;99.90
52899;DHT22;38763;53.096;6.062;2022-12-13T09:28:33;-3.20;99.90
52899;DHT22;38763;53.096;6.062;2022-12-13T09:30:59;-3.10;99.90
52899;DHT22;38763;53.096;6.062;2022-12-13T09:33:25;-3.10;99.90
52899;DHT22;38763;53.096;6.062;2022-12-13T09:35:51;-3.00;99.90
52899;DHT22;38763;53.096;6.062;2022-12-13T09:38:17;-3.00;99.90
52899;DHT22;38763;53.096;6.062;2022-12-13T09:40:44;-2.90;99.90
52899;DHT22;38763;53.096;6.062;2022-12-13T09:43:20;-2.90;99.90
52899;DHT22;38763;53.096;6.062;2022-12-13T09:45:47;-2.80;99.90
52899;DHT22;38763;53.096;6.062;2022-12-13T09:48:20;-2.80;99.90
52899;DHT22;38763;53.096;6.062;2022-12-13T09:50:47;-2.80;99.90
52899;DHT22;38763;53.096;6.062;2022-12-13T09:53:17;-2.70;99.90
52899;DHT22;38763;53.096;6.062;2022-12-13T09:55:48;-2.70;99.90
52899;DHT22;38763;53.096;6.062;2022-12-13T09:58:19;-2.70;99.90
52899;DHT22;38763;53.096;6.062;2022-12-13T10:00:47;-2.60;99.90
52899;DHT22;38763;53.096;6.062;2022-12-13T10:03:15;-2.60;99.90
52899;DHT22;38763;53.096;6.062;2022-12-13T10:05:50;-2.60;99.90
52899;DHT22;38763;53.096;6.062;2022-12-13T10:08:22;-2.60;99.90
52899;DHT22;38763;53.096;6.062;2022-12-13T10:10:50;-2.60;99.90
52899;DHT22;38763;53.096;6.062;2022-12-13T10:16:15;-2.50;99.90
52899;DHT22;38763;53.096;6.062;2022-12-13T10:18:43;-2.50;99.90
52899;DHT22;38763;53.096;6.062;2022-12-13T10:21:24;-2.40;99.90
52899;DHT22;38763;53.096;6.062;2022-12-13T10:23:51;-2.40;99.90
52899;DHT22;38763;53.096;6.062;2022-12-13T10:26:17;-2.40;99.90
52899;DHT22;38763;53.096;6.062;2022-12-13T10:28:43;-2.30;99.90
52899;DHT22;38763;53.096;6.062;2022-12-13T10:31:16;-2.30;99.90
52899;DHT22;38763;53.096;6.062;2022-12-13T10:33:46;-2.30;99.90
52899;DHT22;38763;53.096;6.062;2022-12-13T10:36:33;-2.30;99.90
52899;DHT22;38763;53.096;6.062;2022-12-13T10:39:00;-2.20;99.90
52899;DHT22;38763;53.096;6.062;2022-12-13T10:41:37;-2.20;99.90
52899;DHT22;38763;53.096;6.062;2022-12-13T10:47:12;-2.10;99.90
52899;DHT22;38763;53.096;6.062;2022-12-13T10:49:53;-2.10;99.90
52899;DHT22;38763;53.096;6.062;2022-12-13T10:52:28;-2.10;99.90
52899;DHT22;38763;53.096;6.062;2022-12-13T10:54:56;-2.10;99.90
52899;DHT22;38763;53.096;6.062;2022-12-13T10:57:23;-2.00;99.90
52899;DHT22;38763;53.096;6.062;2022-12-13T10:59:50;-2.10;99.90
52899;DHT22;38763;53.096;6.062;2022-12-13T11:04:57;-1.90;99.90
52899;DHT22;38763;53.096;6.062;2022-12-13T11:07:31;-1.90;99.90
52899;DHT22;38763;53.096;6.062;2022-12-13T11:10:43;-1.80;99.90
52899;DHT22;38763;53.096;6.062;2022-12-13T11:12:44;-1.80;99.90
52899;DHT22;38763;53.096;6.062;2022-12-13T11:15:19;-1.80;99.90
52899;DHT22;38763;53.096;6.062;2022-12-13T11:17:52;-1.70;99.90
52899;DHT22;38763;53.096;6.062;2022-12-13T11:20:26;-1.70;99.90
52899;DHT22;38763;53.096;6.062;2022-12-13T11:23:24;-1.80;99.90
52899;DHT22;38763;53.096;6.062;2022-12-13T11:25:55;-1.60;99.90
52899;DHT22;38763;53.096;6.062;2022-12-13T11:28:31;-1.70;99.90
52899;DHT22;38763;53.096;6.062;2022-12-13T11:31:45;-1.60;99.90
52899;DHT22;38763;53.096;6.062;2022-12-13T11:34:05;-1.60;99.90
52899;DHT22;38763;53.096;6.062;2022-12-13T11:36:59;-1.60;99.90
52899;DHT22;38763;53.096;6.062;2022-12-13T11:39:30;-1.60;99.90
52899;DHT22;38763;53.096;6.062;2022-12-13T11:42:26;-1.60;99.90
52899;DHT22;38763;53.096;6.062;2022-12-13T11:47:34;-1.50;99.90
52899;DHT22;38763;53.096;6.062;2022-12-13T11:50:05;-1.50;99.90
52899;DHT22;38763;53.096;6.062;2022-12-13T11:52:45;-1.40;99.90
52899;DHT22;38763;53.096;6.062;2022-12-13T11:58:14;-1.30;99.90
52899;DHT22;38763;53.096;6.062;2022-12-13T12:00:50;-1.30;99.90
52899;DHT22;38763;53.096;6.062;2022-12-13T12:03:35;-1.30;99.90
52899;DHT22;38763;53.096;6.062;2022-12-13T12:06:08;-1.30;99.90
52899;DHT22;38763;53.096;6.062;2022-12-13T12:11:27;-1.20;99.90
52899;DHT22;38763;53.096;6.062;2022-12-13T12:14:16;-1.20;99.90
52899;DHT22;38763;53.096;6.062;2022-12-13T12:16:58;-1.30;99.90
52899;DHT22;38763;53.096;6.062;2022-12-13T12:19:28;-1.30;99.90
52899;DHT22;38763;53.096;6.062;2022-12-13T12:22:18;-1.20;99.90
52899;DHT22;38763;53.096;6.062;2022-12-13T12:39:10;-1.10;99.90
52899;DHT22;38763;53.096;6.062;2022-12-13T12:50:01;-1.00;99.90
52899;DHT22;38763;53.096;6.062;2022-12-13T12:55:35;-1.10;99.90
52899;DHT22;38763;53.096;6.062;2022-12-13T13:00:50;-0.90;99.90
52899;DHT22;38763;53.096;6.062;2022-12-13T13:03:24;-1.00;99.90
52899;DHT22;38763;53.096;6.062;2022-12-13T13:06:00;-0.90;99.90
52899;DHT22;38763;53.096;6.062;2022-12-13T13:11:07;-0.90;99.90
52899;DHT22;38763;53.096;6.062;2022-12-13T13:19:04;-0.90;99.90
52899;DHT22;38763;53.096;6.062;2022-12-13T13:26:37;-0.90;99.90
52899;DHT22;38763;53.096;6.062;2022-12-13T13:34:48;-1.00;99.90
52899;DHT22;38763;53.096;6.062;2022-12-13T13:37:25;-1.00;99.90
52899;DHT22;38763;53.096;6.062;2022-12-13T13:39:55;-1.00;99.90
52899;DHT22;38763;53.096;6.062;2022-12-13T13:52:18;-1.00;99.90
52899;DHT22;38763;53.096;6.062;2022-12-13T13:57:46;-1.00;99.90
52899;DHT22;38763;53.096;6.062;2022-12-13T14:00:31;-1.00;99.90
52899;DHT22;38763;53.096;6.062;2022-12-13T14:03:15;-1.00;99.90
52899;DHT22;38763;53.096;6.062;2022-12-13T14:08:50;-1.10;99.90
52899;DHT22;38763;53.096;6.062;2022-12-13T14:25:28;-1.30;99.90
52899;DHT22;38763;53.096;6.062;2022-12-13T14:28:08;-1.30;99.90
52899;DHT22;38763;53.096;6.062;2022-12-13T14:30:41;-1.30;99.90
52899;DHT22;38763;53.096;6.062;2022-12-13T14:33:25;-1.40;99.90
52899;DHT22;38763;53.096;6.062;2022-12-13T14:35:59;-1.40;99.90
52899;DHT22;38763;53.096;6.062;2022-12-13T14:38:30;-1.40;99.90
52899;DHT22;38763;53.096;6.062;2022-12-13T14:41:01;-1.40;99.90
52899;DHT22;38763;53.096;6.062;2022-12-13T14:43:32;-1.50;99.90
52899;DHT22;38763;53.096;6.062;2022-12-13T14:46:00;-1.60;99.90
52899;DHT22;38763;53.096;6.062;2022-12-13T14:48:29;-1.60;99.90
52899;DHT22;38763;53.096;6.062;2022-12-13T14:50:57;-1.70;99.90
52899;DHT22;38763;53.096;6.062;2022-12-13T14:56:10;-1.70;99.90
52899;DHT22;38763;53.096;6.062;2022-12-13T14:58:37;-1.80;99.90
52899;DHT22;38763;53.096;6.062;2022-12-13T15:01:49;-1.90;99.90
52899;DHT22;38763;53.096;6.062;2022-12-13T15:03:53;-1.90;99.90
52899;DHT22;38763;53.096;6.062;2022-12-13T15:06:19;-2.00;99.90
52899;DHT22;38763;53.096;6.062;2022-12-13T15:08:45;-2.00;99.90
52899;DHT22;38763;53.096;6.062;2022-12-13T15:11:12;-2.00;99.90
52899;DHT22;38763;53.096;6.062;2022-12-13T15:13:46;-2.00;99.90
52899;DHT22;38763;53.096;6.062;2022-12-13T15:16:18;-2.00;99.90
52899;DHT22;38763;53.096;6.062;2022-12-13T15:18:46;-2.00;99.90
52899;DHT22;38763;53.096;6.062;2022-12-13T15:21:21;-2.00;99.90
52899;DHT22;38763;53.096;6.062;2022-12-13T15:23:47;-2.00;99.90
52899;DHT22;38763;53.096;6.062;2022-12-13T15:26:22;-2.10;99.90
52899;DHT22;38763;53.096;6.062;2022-12-13T15:28:53;-2.10;99.90
52899;DHT22;38763;53.096;6.062;2022-12-13T15:31:20;-2.10;99.90
52899;DHT22;38763;53.096;6.062;2022-12-13T15:33:46;-2.10;99.90
52899;DHT22;38763;53.096;6.062;2022-12-13T15:36:18;-2.10;99.90
52899;DHT22;38763;53.096;6.062;2022-12-13T15:41:33;-2.20;99.90
52899;DHT22;38763;53.096;6.062;2022-12-13T15:47:12;-2.30;99.90
52899;DHT22;38763;53.096;6.062;2022-12-13T15:49:43;-2.40;99.90
52899;DHT22;38763;53.096;6.062;2022-12-13T15:54:38;-2.50;99.90
52899;DHT22;38763;53.096;6.062;2022-12-13T15:57:14;-2.50;99.90
52899;DHT22;38763;53.096;6.062;2022-12-13T15:59:41;-2.60;99.90
52899;DHT22;38763;53.096;6.062;2022-12-13T16:02:26;-2.70;99.90
52899;DHT22;38763;53.096;6.062;2022-12-13T16:05:07;-2.70;99.90
52899;DHT22;38763;53.096;6.062;2022-12-13T16:07:34;-2.60;99.90
52899;DHT22;38763;53.096;6.062;2022-12-13T16:10:03;-2.70;99.90
52899;DHT22;38763;53.096;6.062;2022-12-13T16:12:41;-2.80;99.90
52899;DHT22;38763;53.096;6.062;2022-12-13T16:15:27;-2.80;99.90
52899;DHT22;38763;53.096;6.062;2022-12-13T16:18:15;-2.90;99.90
52899;DHT22;38763;53.096;6.062;2022-12-13T16:20:43;-2.90;99.90
52899;DHT22;38763;53.096;6.062;2022-12-13T16:23:11;-2.90;99.90
52899;DHT22;38763;53.096;6.062;2022-12-13T16:25:37;-2.90;99.90
52899;DHT22;38763;53.096;6.062;2022-12-13T16:28:03;-2.90;99.90
52899;DHT22;38763;53.096;6.062;2022-12-13T16:33:18;-2.90;99.90
52899;DHT22;38763;53.096;6.062;2022-12-13T16:35:44;-2.90;99.90
52899;DHT22;38763;53.096;6.062;2022-12-13T16:38:10;-3.00;99.90
52899;DHT22;38763;53.096;6.062;2022-12-13T16:40:36;-2.90;99.90
52899;DHT22;38763;53.096;6.062;2022-12-13T16:43:04;-3.00;99.90
52899;DHT22;38763;53.096;6.062;2022-12-13T16:45:38;-2.90;99.90
52899;DHT22;38763;53.096;6.062;2022-12-13T16:48:05;-2.90;99.90
52899;DHT22;38763;53.096;6.062;2022-12-13T16:50:31;-2.90;99.90
52899;DHT22;38763;53.096;6.062;2022-12-13T16:52:57;-2.90;99.90
52899;DHT22;38763;53.096;6.062;2022-12-13T16:55:23;-2.90;99.90
52899;DHT22;38763;53.096;6.062;2022-12-13T16:58:02;-2.90;99.90
52899;DHT22;38763;53.096;6.062;2022-12-13T17:00:28;-2.90;99.90
52899;DHT22;38763;53.096;6.062;2022-12-13T17:02:55;-2.90;99.90
52899;DHT22;38763;53.096;6.062;2022-12-13T17:05:22;-3.00;99.90
52899;DHT22;38763;53.096;6.062;2022-12-13T17:07:48;-3.10;99.90
52899;DHT22;38763;53.096;6.062;2022-12-13T17:10:14;-3.00;99.90
52899;DHT22;38763;53.096;6.062;2022-12-13T17:12:40;-3.10;99.90
52899;DHT22;38763;53.096;6.062;2022-12-13T17:15:07;-3.10;99.90
52899;DHT22;38763;53.096;6.062;2022-12-13T17:17:36;-3.10;99.90
52899;DHT22;38763;53.096;6.062;2022-12-13T17:20:03;-3.10;99.90
52899;DHT22;38763;53.096;6.062;2022-12-13T17:22:29;-3.10;99.90
52899;DHT22;38763;53.096;6.062;2022-12-13T17:24:55;-3.10;99.90
52899;DHT22;38763;53.096;6.062;2022-12-13T17:27:20;-3.10;99.90
52899;DHT22;38763;53.096;6.062;2022-12-13T17:29:46;-3.10;99.90
52899;DHT22;38763;53.096;6.062;2022-12-13T17:32:12;-3.10;99.90
52899;DHT22;38763;53.096;6.062;2022-12-13T17:34:38;-3.10;99.90
52899;DHT22;38763;53.096;6.062;2022-12-13T17:37:03;-3.10;99.90
52899;DHT22;38763;53.096;6.062;2022-12-13T17:39:30;-3.20;99.90
52899;DHT22;38763;53.096;6.062;2022-12-13T17:41:56;-3.10;99.90
52899;DHT22;38763;53.096;6.062;2022-12-13T17:44:25;-3.20;99.90
52899;DHT22;38763;53.096;6.062;2022-12-13T17:46:51;-3.20;99.90
52899;DHT22;38763;53.096;6.062;2022-12-13T17:49:17;-3.20;99.90
52899;DHT22;38763;53.096;6.062;2022-12-13T17:51:43;-3.30;99.90
52899;DHT22;38763;53.096;6.062;2022-12-13T17:54:09;-3.30;99.90
52899;DHT22;38763;53.096;6.062;2022-12-13T17:56:35;-3.20;99.90
52899;DHT22;38763;53.096;6.062;2022-12-13T17:59:01;-3.30;99.90
52899;DHT22;38763;53.096;6.062;2022-12-13T18:01:27;-3.20;99.90
52899;DHT22;38763;53.096;6.062;2022-12-13T18:03:55;-3.30;99.90